sensor_id;sensor_type;location;lat;lon;timestamp;pressure;altitude;pressure_sealevel;temperature;humidity
63500;BME280;49654;51.142;14.924;2022-09-09T00:01:21;98837.56;;;16.55;76.32
63500;BME280;49654;51.142;14.924;2022-09-09T00:03:54;98826.94;;;16.50;75.97
63500;BME280;49654;51.142;14.924;2022-09-09T00:06:28;98837.13;;;16.58;75.71
63500;BME280;49654;51.142;14.924;2022-09-09T00:09:03;98835.00;;;16.48;76.37
63500;BME280;49654;51.142;14.924;2022-09-09T00:11:37;98832.78;;;16.34;76.50
63500;BME280;49654;51.142;14.924;2022-09-09T00:14:13;98837.50;;;16.25;77.26
63500;BME280;49654;51.142;14.924;2022-09-09T00:16:50;98841.84;;;16.31;77.04
63500;BME280;49654;51.142;14.924;2022-09-09T00:19:24;98840.63;;;16.15;77.41
63500;BME280;49654;51.142;14.924;2022-09-09T00:22:03;98833.16;;;16.19;76.79
63500;BME280;49654;51.142;14.924;2022-09-09T00:24:38;98831.91;;;16.21;76.40
63500;BME280;49654;51.142;14.924;2022-09-09T00:27:15;98818.28;;;16.13;76.76
63500;BME280;49654;51.142;14.924;2022-09-09T00:29:48;98832.47;;;16.05;77.16
63500;BME280;49654;51.142;14.924;2022-09-09T00:32:19;98833.22;;;16.12;77.17
63500;BME280;49654;51.142;14.924;2022-09-09T00:34:48;98822.72;;;16.12;76.80
63500;BME280;49654;51.142;14.924;2022-09-09T00:37:18;98813.84;;;16.13;76.51
63500;BME280;49654;51.142;14.924;2022-09-09T00:39:47;98822.88;;;16.17;76.02
63500;BME280;49654;51.142;14.924;2022-09-09T00:42:16;98824.84;;;16.03;76.54
63500;BME280;49654;51.142;14.924;2022-09-09T00:44:52;98825.22;;;16.07;76.04
63500;BME280;49654;51.142;14.924;2022-09-09T00:47:43;98820.53;;;16.09;75.86
63500;BME280;49654;51.142;14.924;2022-09-09T00:50:20;98828.63;;;16.08;75.99
63500;BME280;49654;51.142;14.924;2022-09-09T00:52:56;98827.47;;;16.03;76.11
63500;BME280;49654;51.142;14.924;2022-09-09T00:55:35;98827.00;;;15.88;76.28
63500;BME280;49654;51.142;14.924;2022-09-09T00:58:07;98828.41;;;15.91;76.24
63500;BME280;49654;51.142;14.924;2022-09-09T01:00:41;98827.22;;;15.87;75.93
63500;BME280;49654;51.142;14.924;2022-09-09T01:03:18;98829.09;;;15.80;76.42
63500;BME280;49654;51.142;14.924;2022-09-09T01:05:54;98832.03;;;15.90;75.96
63500;BME280;49654;51.142;14.924;2022-09-09T01:11:22;98831.31;;;16.01;74.88
63500;BME280;49654;51.142;14.924;2022-09-09T01:13:55;98828.84;;;16.06;74.39
63500;BME280;49654;51.142;14.924;2022-09-09T01:16:26;98828.81;;;15.88;74.63
63500;BME280;49654;51.142;14.924;2022-09-09T01:18:56;98836.69;;;15.88;75.02
63500;BME280;49654;51.142;14.924;2022-09-09T01:21:35;98837.84;;;15.92;74.45
63500;BME280;49654;51.142;14.924;2022-09-09T01:24:21;98840.31;;;16.05;73.82
63500;BME280;49654;51.142;14.924;2022-09-09T01:26:52;98849.34;;;15.91;74.43
63500;BME280;49654;51.142;14.924;2022-09-09T01:29:21;98851.09;;;15.97;74.61
63500;BME280;49654;51.142;14.924;2022-09-09T01:31:54;98853.78;;;15.90;74.76
63500;BME280;49654;51.142;14.924;2022-09-09T01:34:23;98851.59;;;15.87;74.94
63500;BME280;49654;51.142;14.924;2022-09-09T01:36:56;98852.63;;;16.05;74.50
63500;BME280;49654;51.142;14.924;2022-09-09T01:39:25;98851.81;;;16.04;74.46
63500;BME280;49654;51.142;14.924;2022-09-09T01:41:54;98850.66;;;16.00;74.79
63500;BME280;49654;51.142;14.924;2022-09-09T01:44:22;98850.38;;;15.90;75.13
63500;BME280;49654;51.142;14.924;2022-09-09T01:46:49;98846.06;;;15.95;74.99
63500;BME280;49654;51.142;14.924;2022-09-09T01:49:17;98849.28;;;15.97;74.63
63500;BME280;49654;51.142;14.924;2022-09-09T01:51:47;98843.47;;;15.95;74.87
63500;BME280;49654;51.142;14.924;2022-09-09T01:54:16;98851.09;;;15.97;74.66
63500;BME280;49654;51.142;14.924;2022-09-09T01:56:47;98851.91;;;15.97;74.37
63500;BME280;49654;51.142;14.924;2022-09-09T01:59:42;98853.00;;;16.08;73.80
63500;BME280;49654;51.142;14.924;2022-09-09T02:02:17;98852.09;;;15.96;73.78
63500;BME280;49654;51.142;14.924;2022-09-09T02:04:47;98850.50;;;15.95;73.88
63500;BME280;49654;51.142;14.924;2022-09-09T02:07:26;98848.78;;;15.89;73.99
63500;BME280;49654;51.142;14.924;2022-09-09T02:09:59;98851.44;;;15.82;74.27
63500;BME280;49654;51.142;14.924;2022-09-09T02:12:30;98841.47;;;15.72;74.03
63500;BME280;49654;51.142;14.924;2022-09-09T02:15:04;98842.00;;;15.81;73.98
63500;BME280;49654;51.142;14.924;2022-09-09T02:17:36;98852.59;;;15.68;74.54
63500;BME280;49654;51.142;14.924;2022-09-09T02:20:08;98855.06;;;15.56;75.01
63500;BME280;49654;51.142;14.924;2022-09-09T02:22:37;98849.44;;;15.52;75.12
63500;BME280;49654;51.142;14.924;2022-09-09T02:25:07;98850.97;;;15.67;74.60
63500;BME280;49654;51.142;14.924;2022-09-09T02:27:35;98847.59;;;15.60;74.85
63500;BME280;49654;51.142;14.924;2022-09-09T02:30:05;98853.53;;;15.73;74.68
63500;BME280;49654;51.142;14.924;2022-09-09T02:32:34;98847.13;;;15.63;74.99
63500;BME280;49654;51.142;14.924;2022-09-09T02:35:05;98847.53;;;15.66;74.99
63500;BME280;49654;51.142;14.924;2022-09-09T02:37:36;98844.53;;;15.63;75.25
63500;BME280;49654;51.142;14.924;2022-09-09T02:40:06;98849.69;;;15.51;75.89
63500;BME280;49654;51.142;14.924;2022-09-09T02:42:38;98851.50;;;15.50;76.16
63500;BME280;49654;51.142;14.924;2022-09-09T02:45:09;98853.09;;;15.51;76.51
63500;BME280;49654;51.142;14.924;2022-09-09T02:47:40;98860.69;;;15.60;76.50
63500;BME280;49654;51.142;14.924;2022-09-09T02:50:13;98852.06;;;15.52;76.97
63500;BME280;49654;51.142;14.924;2022-09-09T02:52:50;98846.16;;;15.64;76.95
63500;BME280;49654;51.142;14.924;2022-09-09T02:55:25;98860.63;;;15.66;77.17
63500;BME280;49654;51.142;14.924;2022-09-09T02:57:56;98858.03;;;15.66;77.04
63500;BME280;49654;51.142;14.924;2022-09-09T03:00:27;98871.09;;;15.66;77.64
63500;BME280;49654;51.142;14.924;2022-09-09T03:02:55;98862.28;;;15.61;78.10
63500;BME280;49654;51.142;14.924;2022-09-09T03:05:22;98867.53;;;15.54;78.34
63500;BME280;49654;51.142;14.924;2022-09-09T03:07:49;98866.97;;;15.52;79.16
63500;BME280;49654;51.142;14.924;2022-09-09T03:10:16;98867.69;;;15.66;78.64
63500;BME280;49654;51.142;14.924;2022-09-09T03:12:44;98861.25;;;15.68;78.43
63500;BME280;49654;51.142;14.924;2022-09-09T03:15:11;98861.91;;;15.57;78.50
63500;BME280;49654;51.142;14.924;2022-09-09T03:17:40;98862.81;;;15.44;78.85
63500;BME280;49654;51.142;14.924;2022-09-09T03:20:07;98872.88;;;15.41;78.69
63500;BME280;49654;51.142;14.924;2022-09-09T03:22:35;98866.91;;;15.34;79.00
63500;BME280;49654;51.142;14.924;2022-09-09T03:25:02;98868.00;;;15.19;79.39
63500;BME280;49654;51.142;14.924;2022-09-09T03:27:29;98863.25;;;15.10;80.36
63500;BME280;49654;51.142;14.924;2022-09-09T03:29:57;98869.66;;;15.14;80.09
63500;BME280;49654;51.142;14.924;2022-09-09T03:32:24;98873.78;;;15.28;78.90
63500;BME280;49654;51.142;14.924;2022-09-09T03:34:53;98874.97;;;15.32;79.01
63500;BME280;49654;51.142;14.924;2022-09-09T03:37:20;98874.97;;;15.32;78.62
63500;BME280;49654;51.142;14.924;2022-09-09T03:39:48;98882.47;;;15.22;79.27
63500;BME280;49654;51.142;14.924;2022-09-09T03:42:15;98883.66;;;15.26;78.81
63500;BME280;49654;51.142;14.924;2022-09-09T03:44:44;98878.53;;;15.06;79.48
63500;BME280;49654;51.142;14.924;2022-09-09T03:47:16;98869.09;;;15.05;79.88
63500;BME280;49654;51.142;14.924;2022-09-09T03:49:44;98882.69;;;15.20;79.86
63500;BME280;49654;51.142;14.924;2022-09-09T03:52:12;98883.91;;;15.18;79.90
63500;BME280;49654;51.142;14.924;2022-09-09T03:54:39;98881.56;;;15.03;80.47
63500;BME280;49654;51.142;14.924;2022-09-09T03:57:08;98878.69;;;15.18;80.27
63500;BME280;49654;51.142;14.924;2022-09-09T03:59:35;98879.97;;;15.02;80.54
63500;BME280;49654;51.142;14.924;2022-09-09T04:02:03;98878.38;;;15.01;81.00
63500;BME280;49654;51.142;14.924;2022-09-09T04:04:30;98878.59;;;14.99;81.15
63500;BME280;49654;51.142;14.924;2022-09-09T04:06:57;98880.19;;;15.00;81.60
63500;BME280;49654;51.142;14.924;2022-09-09T04:09:25;98871.50;;;15.07;81.32
63500;BME280;49654;51.142;14.924;2022-09-09T04:11:52;98881.06;;;15.26;80.25
63500;BME280;49654;51.142;14.924;2022-09-09T04:14:20;98892.72;;;15.23;80.40
63500;BME280;49654;51.142;14.924;2022-09-09T04:16:47;98890.28;;;15.28;80.04
63500;BME280;49654;51.142;14.924;2022-09-09T04:19:14;98880.97;;;15.33;79.10
63500;BME280;49654;51.142;14.924;2022-09-09T04:21:41;98892.81;;;15.42;78.95
63500;BME280;49654;51.142;14.924;2022-09-09T04:24:08;98871.53;;;15.32;78.65
63500;BME280;49654;51.142;14.924;2022-09-09T04:26:37;98882.63;;;15.34;78.82
63500;BME280;49654;51.142;14.924;2022-09-09T04:29:04;98893.25;;;15.39;78.70
63500;BME280;49654;51.142;14.924;2022-09-09T04:31:33;98897.22;;;15.41;78.73
63500;BME280;49654;51.142;14.924;2022-09-09T04:34:00;98893.78;;;15.47;78.39
63500;BME280;49654;51.142;14.924;2022-09-09T04:36:31;98895.75;;;15.52;78.07
63500;BME280;49654;51.142;14.924;2022-09-09T04:38:58;98897.50;;;15.65;77.69
63500;BME280;49654;51.142;14.924;2022-09-09T04:41:27;98901.59;;;15.79;76.53
63500;BME280;49654;51.142;14.924;2022-09-09T04:43:55;98891.19;;;15.97;75.31
63500;BME280;49654;51.142;14.924;2022-09-09T04:46:22;98892.88;;;16.10;74.88
63500;BME280;49654;51.142;14.924;2022-09-09T04:48:49;98886.63;;;16.11;74.89
63500;BME280;49654;51.142;14.924;2022-09-09T04:51:16;98892.22;;;16.15;74.27
63500;BME280;49654;51.142;14.924;2022-09-09T04:53:43;98886.63;;;16.11;74.21
63500;BME280;49654;51.142;14.924;2022-09-09T04:56:14;98893.59;;;16.17;74.09
63500;BME280;49654;51.142;14.924;2022-09-09T04:58:42;98897.25;;;16.16;74.41
63500;BME280;49654;51.142;14.924;2022-09-09T05:01:13;98899.88;;;16.35;73.74
63500;BME280;49654;51.142;14.924;2022-09-09T05:03:40;98893.41;;;16.37;73.84
63500;BME280;49654;51.142;14.924;2022-09-09T05:06:09;98892.38;;;16.38;73.80
63500;BME280;49654;51.142;14.924;2022-09-09T05:08:37;98896.75;;;16.26;73.71
63500;BME280;49654;51.142;14.924;2022-09-09T05:11:14;98890.13;;;16.42;73.40
63500;BME280;49654;51.142;14.924;2022-09-09T05:13:42;98892.16;;;16.40;73.42
63500;BME280;49654;51.142;14.924;2022-09-09T05:16:11;98897.75;;;16.43;73.06
63500;BME280;49654;51.142;14.924;2022-09-09T05:18:38;98900.69;;;16.53;72.70
63500;BME280;49654;51.142;14.924;2022-09-09T05:21:06;98891.41;;;16.69;71.95
63500;BME280;49654;51.142;14.924;2022-09-09T05:23:33;98902.28;;;16.73;71.99
63500;BME280;49654;51.142;14.924;2022-09-09T05:26:01;98896.19;;;16.79;71.62
63500;BME280;49654;51.142;14.924;2022-09-09T05:28:28;98903.72;;;16.87;71.71
63500;BME280;49654;51.142;14.924;2022-09-09T05:30:56;98899.97;;;16.83;70.89
63500;BME280;49654;51.142;14.924;2022-09-09T05:33:25;98904.06;;;17.09;70.07
63500;BME280;49654;51.142;14.924;2022-09-09T05:35:57;98893.25;;;17.17;69.28
63500;BME280;49654;51.142;14.924;2022-09-09T05:38:24;98897.66;;;17.17;69.10
63500;BME280;49654;51.142;14.924;2022-09-09T05:40:52;98907.66;;;17.26;69.32
63500;BME280;49654;51.142;14.924;2022-09-09T05:43:19;98906.75;;;17.33;69.04
63500;BME280;49654;51.142;14.924;2022-09-09T05:45:46;98901.28;;;17.46;69.19
63500;BME280;49654;51.142;14.924;2022-09-09T05:48:14;98895.25;;;17.45;69.21
63500;BME280;49654;51.142;14.924;2022-09-09T05:50:43;98893.84;;;17.43;69.19
63500;BME280;49654;51.142;14.924;2022-09-09T05:53:10;98887.25;;;17.40;69.65
63500;BME280;49654;51.142;14.924;2022-09-09T05:55:37;98897.19;;;17.50;69.05
63500;BME280;49654;51.142;14.924;2022-09-09T05:58:04;98884.88;;;17.50;68.54
63500;BME280;49654;51.142;14.924;2022-09-09T06:00:31;98894.78;;;17.37;68.89
63500;BME280;49654;51.142;14.924;2022-09-09T06:02:58;98896.84;;;17.46;68.99
63500;BME280;49654;51.142;14.924;2022-09-09T06:05:25;98892.75;;;17.39;68.97
63500;BME280;49654;51.142;14.924;2022-09-09T06:07:55;98895.63;;;17.61;68.87
63500;BME280;49654;51.142;14.924;2022-09-09T06:10:22;98892.22;;;17.60;68.71
63500;BME280;49654;51.142;14.924;2022-09-09T06:12:52;98907.44;;;17.82;68.42
63500;BME280;49654;51.142;14.924;2022-09-09T06:15:20;98896.34;;;17.80;67.80
63500;BME280;49654;51.142;14.924;2022-09-09T06:17:47;98910.50;;;18.02;67.62
63500;BME280;49654;51.142;14.924;2022-09-09T06:20:20;98902.63;;;18.14;67.60
63500;BME280;49654;51.142;14.924;2022-09-09T06:22:47;98905.38;;;18.19;66.92
63500;BME280;49654;51.142;14.924;2022-09-09T06:25:15;98893.16;;;18.24;66.17
63500;BME280;49654;51.142;14.924;2022-09-09T06:27:48;98889.13;;;18.22;66.64
63500;BME280;49654;51.142;14.924;2022-09-09T06:30:15;98890.06;;;18.16;66.49
63500;BME280;49654;51.142;14.924;2022-09-09T06:32:42;98908.41;;;18.51;65.98
63500;BME280;49654;51.142;14.924;2022-09-09T06:35:10;98916.25;;;18.74;66.31
63500;BME280;49654;51.142;14.924;2022-09-09T06:37:37;98913.41;;;18.64;66.50
63500;BME280;49654;51.142;14.924;2022-09-09T06:40:05;98910.78;;;18.64;67.42
63500;BME280;49654;51.142;14.924;2022-09-09T06:42:33;98915.81;;;18.77;66.22
63500;BME280;49654;51.142;14.924;2022-09-09T06:45:00;98918.34;;;19.01;66.20
63500;BME280;49654;51.142;14.924;2022-09-09T06:47:28;98913.56;;;18.98;66.04
63500;BME280;49654;51.142;14.924;2022-09-09T06:49:55;98922.00;;;19.00;66.72
63500;BME280;49654;51.142;14.924;2022-09-09T06:52:22;98925.34;;;18.95;67.01
63500;BME280;49654;51.142;14.924;2022-09-09T06:54:50;98928.34;;;18.87;67.14
63500;BME280;49654;51.142;14.924;2022-09-09T06:57:17;98924.44;;;19.01;66.84
63500;BME280;49654;51.142;14.924;2022-09-09T06:59:45;98925.63;;;18.82;66.58
63500;BME280;49654;51.142;14.924;2022-09-09T07:02:12;98922.78;;;18.60;66.98
63500;BME280;49654;51.142;14.924;2022-09-09T07:04:40;98925.44;;;18.72;67.91
63500;BME280;49654;51.142;14.924;2022-09-09T07:07:07;98912.56;;;18.87;67.19
63500;BME280;49654;51.142;14.924;2022-09-09T07:09:35;98917.59;;;19.17;66.90
63500;BME280;49654;51.142;14.924;2022-09-09T07:12:02;98923.53;;;19.41;65.78
63500;BME280;49654;51.142;14.924;2022-09-09T07:14:29;98925.72;;;19.44;65.28
63500;BME280;49654;51.142;14.924;2022-09-09T07:16:58;98922.44;;;19.54;65.06
63500;BME280;49654;51.142;14.924;2022-09-09T07:19:26;98914.06;;;19.40;64.98
63500;BME280;49654;51.142;14.924;2022-09-09T07:21:52;98916.38;;;19.54;65.13
63500;BME280;49654;51.142;14.924;2022-09-09T07:24:19;98920.75;;;19.48;64.65
63500;BME280;49654;51.142;14.924;2022-09-09T07:26:47;98916.31;;;19.65;65.81
63500;BME280;49654;51.142;14.924;2022-09-09T07:29:14;98929.06;;;19.57;64.35
63500;BME280;49654;51.142;14.924;2022-09-09T07:31:41;98923.97;;;19.21;64.27
63500;BME280;49654;51.142;14.924;2022-09-09T07:34:09;98920.03;;;19.36;65.28
63500;BME280;49654;51.142;14.924;2022-09-09T07:36:38;98924.72;;;19.34;65.84
63500;BME280;49654;51.142;14.924;2022-09-09T07:39:07;98930.88;;;19.39;65.14
63500;BME280;49654;51.142;14.924;2022-09-09T07:41:36;98920.34;;;19.56;66.37
63500;BME280;49654;51.142;14.924;2022-09-09T07:44:05;98916.97;;;19.72;66.18
63500;BME280;49654;51.142;14.924;2022-09-09T07:46:33;98918.00;;;19.71;64.28
63500;BME280;49654;51.142;14.924;2022-09-09T07:49:01;98932.69;;;19.67;65.00
63500;BME280;49654;51.142;14.924;2022-09-09T07:51:32;98926.91;;;19.54;65.02
63500;BME280;49654;51.142;14.924;2022-09-09T07:54:01;98933.38;;;19.46;65.79
63500;BME280;49654;51.142;14.924;2022-09-09T07:56:29;98939.47;;;19.35;65.19
63500;BME280;49654;51.142;14.924;2022-09-09T07:58:58;98932.94;;;19.37;66.27
63500;BME280;49654;51.142;14.924;2022-09-09T08:01:27;98937.75;;;19.40;67.36
63500;BME280;49654;51.142;14.924;2022-09-09T08:03:56;98946.09;;;19.83;66.25
63500;BME280;49654;51.142;14.924;2022-09-09T08:06:25;98947.84;;;20.11;65.32
63500;BME280;49654;51.142;14.924;2022-09-09T08:08:53;98940.38;;;20.24;64.86
63500;BME280;49654;51.142;14.924;2022-09-09T08:11:22;98939.06;;;20.44;65.81
63500;BME280;49654;51.142;14.924;2022-09-09T08:13:50;98941.72;;;20.44;64.49
63500;BME280;49654;51.142;14.924;2022-09-09T08:16:19;98945.31;;;20.38;63.82
63500;BME280;49654;51.142;14.924;2022-09-09T08:18:47;98924.13;;;20.11;62.68
63500;BME280;49654;51.142;14.924;2022-09-09T08:21:17;98947.84;;;20.11;63.08
63500;BME280;49654;51.142;14.924;2022-09-09T08:23:45;98945.06;;;20.00;63.37
63500;BME280;49654;51.142;14.924;2022-09-09T08:26:15;98940.38;;;20.24;64.10
63500;BME280;49654;51.142;14.924;2022-09-09T08:28:43;98932.13;;;20.38;61.55
63500;BME280;49654;51.142;14.924;2022-09-09T08:31:12;98932.91;;;20.38;62.57
63500;BME280;49654;51.142;14.924;2022-09-09T08:33:39;98930.91;;;20.45;63.01
63500;BME280;49654;51.142;14.924;2022-09-09T08:36:09;98931.63;;;20.58;62.15
63500;BME280;49654;51.142;14.924;2022-09-09T08:38:37;98936.22;;;20.67;62.19
63500;BME280;49654;51.142;14.924;2022-09-09T08:41:15;98937.31;;;20.93;61.60
63500;BME280;49654;51.142;14.924;2022-09-09T08:43:46;98938.16;;;21.21;59.87
63500;BME280;49654;51.142;14.924;2022-09-09T08:46:19;98940.25;;;21.24;59.97
63500;BME280;49654;51.142;14.924;2022-09-09T08:48:56;98935.59;;;21.31;59.57
63500;BME280;49654;51.142;14.924;2022-09-09T08:51:27;98939.69;;;21.44;59.31
63500;BME280;49654;51.142;14.924;2022-09-09T08:53:58;98945.16;;;21.64;59.47
63500;BME280;49654;51.142;14.924;2022-09-09T08:56:31;98948.31;;;21.61;59.67
63500;BME280;49654;51.142;14.924;2022-09-09T08:59:01;98947.78;;;21.96;58.80
63500;BME280;49654;51.142;14.924;2022-09-09T09:01:39;98952.72;;;22.20;58.05
63500;BME280;49654;51.142;14.924;2022-09-09T09:04:16;98951.97;;;22.24;56.42
63500;BME280;49654;51.142;14.924;2022-09-09T09:06:56;98942.09;;;22.57;55.10
63500;BME280;49654;51.142;14.924;2022-09-09T09:09:30;98945.16;;;22.96;53.50
63500;BME280;49654;51.142;14.924;2022-09-09T09:12:14;98915.88;;;23.74;51.05
63500;BME280;49654;51.142;14.924;2022-09-09T09:14:44;98933.00;;;25.03;47.03
63500;BME280;49654;51.142;14.924;2022-09-09T09:17:14;98940.47;;;25.80;46.01
63500;BME280;49654;51.142;14.924;2022-09-09T09:19:43;98929.03;;;25.79;42.98
63500;BME280;49654;51.142;14.924;2022-09-09T09:22:17;98939.09;;;25.82;44.16
63500;BME280;49654;51.142;14.924;2022-09-09T09:24:50;98942.84;;;25.76;44.10
63500;BME280;49654;51.142;14.924;2022-09-09T09:27:25;98926.88;;;25.47;44.57
63500;BME280;49654;51.142;14.924;2022-09-09T09:29:56;98933.09;;;25.32;45.29
63500;BME280;49654;51.142;14.924;2022-09-09T09:32:24;98933.97;;;25.17;45.83
63500;BME280;49654;51.142;14.924;2022-09-09T09:34:55;98931.47;;;24.87;48.08
63500;BME280;49654;51.142;14.924;2022-09-09T09:37:26;98938.53;;;24.52;45.27
63500;BME280;49654;51.142;14.924;2022-09-09T09:39:55;98941.81;;;23.93;46.96
63500;BME280;49654;51.142;14.924;2022-09-09T09:42:23;98937.56;;;23.61;47.00
63500;BME280;49654;51.142;14.924;2022-09-09T09:44:50;98939.66;;;23.29;49.52
63500;BME280;49654;51.142;14.924;2022-09-09T09:47:19;98927.25;;;23.39;49.50
63500;BME280;49654;51.142;14.924;2022-09-09T09:49:53;98939.22;;;23.72;49.88
63500;BME280;49654;51.142;14.924;2022-09-09T09:52:23;98935.75;;;23.87;47.41
63500;BME280;49654;51.142;14.924;2022-09-09T09:54:52;98928.84;;;23.71;48.47
63500;BME280;49654;51.142;14.924;2022-09-09T09:57:25;98926.22;;;23.66;49.51
63500;BME280;49654;51.142;14.924;2022-09-09T10:00:03;98927.50;;;23.58;46.23
63500;BME280;49654;51.142;14.924;2022-09-09T10:02:38;98921.66;;;23.36;48.58
63500;BME280;49654;51.142;14.924;2022-09-09T10:05:13;98919.81;;;23.26;49.67
63500;BME280;49654;51.142;14.924;2022-09-09T10:07:40;98931.75;;;23.49;49.91
63500;BME280;49654;51.142;14.924;2022-09-09T10:10:13;98913.41;;;24.14;49.28
63500;BME280;49654;51.142;14.924;2022-09-09T10:12:53;98913.31;;;24.49;46.66
63500;BME280;49654;51.142;14.924;2022-09-09T10:15:30;98907.81;;;24.26;46.31
63500;BME280;49654;51.142;14.924;2022-09-09T10:18:08;98901.13;;;24.48;48.94
63500;BME280;49654;51.142;14.924;2022-09-09T10:20:45;98915.41;;;24.58;47.41
63500;BME280;49654;51.142;14.924;2022-09-09T10:23:29;98907.53;;;24.97;45.58
63500;BME280;49654;51.142;14.924;2022-09-09T10:26:13;98911.06;;;24.82;47.50
63500;BME280;49654;51.142;14.924;2022-09-09T10:28:57;98909.97;;;24.83;43.74
63500;BME280;49654;51.142;14.924;2022-09-09T10:31:36;98909.03;;;24.64;45.88
63500;BME280;49654;51.142;14.924;2022-09-09T10:34:12;98907.47;;;24.53;46.11
63500;BME280;49654;51.142;14.924;2022-09-09T10:36:47;98905.63;;;24.48;46.14
63500;BME280;49654;51.142;14.924;2022-09-09T10:39:31;98906.31;;;24.74;45.50
63500;BME280;49654;51.142;14.924;2022-09-09T10:42:04;98903.22;;;25.11;44.65
63500;BME280;49654;51.142;14.924;2022-09-09T10:44:50;98888.81;;;25.22;44.72
63500;BME280;49654;51.142;14.924;2022-09-09T10:47:38;98908.53;;;25.06;45.82
63500;BME280;49654;51.142;14.924;2022-09-09T10:50:24;98902.69;;;25.04;46.38
63500;BME280;49654;51.142;14.924;2022-09-09T10:53:01;98906.03;;;24.81;44.83
63500;BME280;49654;51.142;14.924;2022-09-09T10:55:35;98890.34;;;24.79;44.78
63500;BME280;49654;51.142;14.924;2022-09-09T10:58:04;98917.88;;;24.23;48.83
63500;BME280;49654;51.142;14.924;2022-09-09T11:00:39;98917.38;;;24.21;46.94
63500;BME280;49654;51.142;14.924;2022-09-09T11:03:13;98919.25;;;24.06;47.04
63500;BME280;49654;51.142;14.924;2022-09-09T11:05:44;98910.25;;;23.96;48.92
63500;BME280;49654;51.142;14.924;2022-09-09T11:08:15;98921.44;;;23.73;48.21
63500;BME280;49654;51.142;14.924;2022-09-09T11:10:48;98910.53;;;23.29;46.79
63500;BME280;49654;51.142;14.924;2022-09-09T11:13:23;98910.78;;;23.22;47.67
63500;BME280;49654;51.142;14.924;2022-09-09T11:15:58;98911.97;;;22.73;52.09
63500;BME280;49654;51.142;14.924;2022-09-09T11:18:29;98910.09;;;22.64;48.46
63500;BME280;49654;51.142;14.924;2022-09-09T11:20:59;98914.81;;;22.57;51.45
63500;BME280;49654;51.142;14.924;2022-09-09T11:23:35;98920.06;;;22.41;51.02
63500;BME280;49654;51.142;14.924;2022-09-09T11:26:07;98909.16;;;22.33;50.82
63500;BME280;49654;51.142;14.924;2022-09-09T11:28:46;98916.22;;;22.74;51.43
63500;BME280;49654;51.142;14.924;2022-09-09T11:31:36;98912.63;;;23.11;50.53
63500;BME280;49654;51.142;14.924;2022-09-09T11:34:21;98903.66;;;23.53;49.68
63500;BME280;49654;51.142;14.924;2022-09-09T11:37:07;98905.94;;;24.41;47.19
63500;BME280;49654;51.142;14.924;2022-09-09T11:39:44;98902.69;;;24.49;45.61
63500;BME280;49654;51.142;14.924;2022-09-09T11:42:18;98900.66;;;24.21;44.19
63500;BME280;49654;51.142;14.924;2022-09-09T11:44:45;98901.97;;;24.29;43.93
63500;BME280;49654;51.142;14.924;2022-09-09T11:47:21;98910.53;;;24.00;43.80
63500;BME280;49654;51.142;14.924;2022-09-09T11:49:50;98903.66;;;23.99;45.50
63500;BME280;49654;51.142;14.924;2022-09-09T11:52:22;98908.97;;;23.73;43.99
63500;BME280;49654;51.142;14.924;2022-09-09T11:54:51;98897.03;;;23.61;45.61
63500;BME280;49654;51.142;14.924;2022-09-09T11:57:26;98899.13;;;23.89;45.84
63500;BME280;49654;51.142;14.924;2022-09-09T11:59:57;98901.16;;;24.38;46.85
63500;BME280;49654;51.142;14.924;2022-09-09T12:02:27;98897.13;;;24.56;45.45
63500;BME280;49654;51.142;14.924;2022-09-09T12:04:59;98887.19;;;24.77;44.83
63500;BME280;49654;51.142;14.924;2022-09-09T12:07:33;98891.03;;;25.44;43.60
63500;BME280;49654;51.142;14.924;2022-09-09T12:10:03;98897.84;;;25.85;44.20
63500;BME280;49654;51.142;14.924;2022-09-09T12:12:34;98883.00;;;26.75;40.04
63500;BME280;49654;51.142;14.924;2022-09-09T12:15:31;98886.25;;;27.28;37.70
63500;BME280;49654;51.142;14.924;2022-09-09T12:17:59;98891.19;;;27.35;37.88
63500;BME280;49654;51.142;14.924;2022-09-09T12:20:31;98890.56;;;27.76;38.60
63500;BME280;49654;51.142;14.924;2022-09-09T12:23:27;98898.16;;;27.17;37.77
63500;BME280;49654;51.142;14.924;2022-09-09T12:26:03;98888.94;;;26.48;38.95
63500;BME280;49654;51.142;14.924;2022-09-09T12:28:44;98891.69;;;25.89;40.21
63500;BME280;49654;51.142;14.924;2022-09-09T12:31:17;98872.75;;;25.33;42.15
63500;BME280;49654;51.142;14.924;2022-09-09T12:33:49;98887.97;;;25.22;42.11
63500;BME280;49654;51.142;14.924;2022-09-09T12:36:19;98887.00;;;25.13;43.35
63500;BME280;49654;51.142;14.924;2022-09-09T12:38:48;98883.84;;;25.06;43.51
63500;BME280;49654;51.142;14.924;2022-09-09T12:41:21;98884.34;;;25.13;41.46
63500;BME280;49654;51.142;14.924;2022-09-09T12:43:49;98881.06;;;25.55;41.52
63500;BME280;49654;51.142;14.924;2022-09-09T12:46:26;98875.56;;;27.61;38.69
63500;BME280;49654;51.142;14.924;2022-09-09T12:48:58;98869.06;;;29.13;35.58
63500;BME280;49654;51.142;14.924;2022-09-09T12:51:28;98860.19;;;28.54;36.47
63500;BME280;49654;51.142;14.924;2022-09-09T12:53:56;98847.66;;;31.07;33.09
63500;BME280;49654;51.142;14.924;2022-09-09T12:56:24;98825.66;;;34.68;26.34
63500;BME280;49654;51.142;14.924;2022-09-09T12:58:55;98827.84;;;34.50;26.22
63500;BME280;49654;51.142;14.924;2022-09-09T13:01:24;98829.34;;;33.74;28.02
63500;BME280;49654;51.142;14.924;2022-09-09T13:03:52;98817.91;;;36.37;24.01
63500;BME280;49654;51.142;14.924;2022-09-09T13:06:22;98816.56;;;35.01;24.64
63500;BME280;49654;51.142;14.924;2022-09-09T13:08:50;98812.53;;;35.54;24.68
63500;BME280;49654;51.142;14.924;2022-09-09T13:11:20;98801.50;;;38.29;22.35
63500;BME280;49654;51.142;14.924;2022-09-09T13:13:53;98783.31;;;41.06;19.11